sensor_id;sensor_type;location;lat;lon;timestamp;pressure;altitude;pressure_sealevel;temperature;humidity
34482;BME280;20720;48.886;9.388;2023-05-03T00:02:04;99203.75;;;14.64;100.00
34482;BME280;20720;48.886;9.388;2023-05-03T00:04:30;99203.34;;;14.60;100.00
34482;BME280;20720;48.886;9.388;2023-05-03T00:06:58;99209.44;;;14.54;100.00
34482;BME280;20720;48.886;9.388;2023-05-03T00:09:24;99211.88;;;14.49;100.00
34482;BME280;20720;48.886;9.388;2023-05-03T00:11:49;99213.91;;;14.34;100.00
34482;BME280;20720;48.886;9.388;2023-05-03T00:14:14;99213.09;;;14.34;100.00
34482;BME280;20720;48.886;9.388;2023-05-03T00:16:40;99213.41;;;14.17;100.00
34482;BME280;20720;48.886;9.388;2023-05-03T00:19:05;99215.84;;;14.12;100.00
34482;BME280;20720;48.886;9.388;2023-05-03T00:21:30;99216.66;;;14.19;100.00
34482;BME280;20720;48.886;9.388;2023-05-03T00:23:56;99210.50;;;13.86;100.00
34482;BME280;20720;48.886;9.388;2023-05-03T00:26:21;99214.53;;;13.82;100.00
34482;BME280;20720;48.886;9.388;2023-05-03T00:28:46;99211.69;;;13.77;100.00
34482;BME280;20720;48.886;9.388;2023-05-03T00:31:11;99200.09;;;13.72;100.00
34482;BME280;20720;48.886;9.388;2023-05-03T00:33:37;99208.31;;;13.49;100.00
34482;BME280;20720;48.886;9.388;2023-05-03T00:36:09;99212.09;;;13.87;100.00
34482;BME280;20720;48.886;9.388;2023-05-03T00:38:35;99202.97;;;13.43;100.00
34482;BME280;20720;48.886;9.388;2023-05-03T00:41:01;99204.97;;;13.34;100.00
34482;BME280;20720;48.886;9.388;2023-05-03T00:43:27;99203.03;;;13.49;100.00
34482;BME280;20720;48.886;9.388;2023-05-03T00:45:53;99205.00;;;13.81;100.00
34482;BME280;20720;48.886;9.388;2023-05-03T00:48:18;99192.22;;;13.91;100.00
34482;BME280;20720;48.886;9.388;2023-05-03T00:50:44;99196.63;;;13.78;100.00
34482;BME280;20720;48.886;9.388;2023-05-03T00:53:11;99190.19;;;13.87;100.00
34482;BME280;20720;48.886;9.388;2023-05-03T00:55:36;99190.88;;;13.55;100.00
34482;BME280;20720;48.886;9.388;2023-05-03T00:58:01;99187.59;;;13.53;100.00
34482;BME280;20720;48.886;9.388;2023-05-03T01:00:26;99192.47;;;13.49;100.00
34482;BME280;20720;48.886;9.388;2023-05-03T01:02:52;99186.53;;;13.94;100.00
34482;BME280;20720;48.886;9.388;2023-05-03T01:05:19;99189.84;;;14.09;100.00
34482;BME280;20720;48.886;9.388;2023-05-03T01:08:31;99186.53;;;13.94;100.00
34482;BME280;20720;48.886;9.388;2023-05-03T01:11:16;99190.25;;;14.13;100.00
34482;BME280;20720;48.886;9.388;2023-05-03T01:13:57;99191.16;;;13.79;100.00
34482;BME280;20720;48.886;9.388;2023-05-03T01:16:43;99191.59;;;13.89;100.00
34482;BME280;20720;48.886;9.388;2023-05-03T01:21:51;99177.25;;;13.58;100.00
34482;BME280;20720;48.886;9.388;2023-05-03T01:24:23;99191.22;;;13.45;100.00
34482;BME280;20720;48.886;9.388;2023-05-03T01:26:48;99175.66;;;13.63;100.00
34482;BME280;20720;48.886;9.388;2023-05-03T01:29:13;99171.06;;;13.85;100.00
34482;BME280;20720;48.886;9.388;2023-05-03T01:32:00;99171.44;;;13.75;100.00
34482;BME280;20720;48.886;9.388;2023-05-03T01:34:36;99171.47;;;13.95;100.00
34482;BME280;20720;48.886;9.388;2023-05-03T01:37:07;99170.84;;;13.80;100.00
34482;BME280;20720;48.886;9.388;2023-05-03T01:39:43;99162.16;;;13.92;100.00
34482;BME280;20720;48.886;9.388;2023-05-03T01:42:10;99172.69;;;13.79;100.00
34482;BME280;20720;48.886;9.388;2023-05-03T01:44:38;99163.72;;;13.80;100.00
34482;BME280;20720;48.886;9.388;2023-05-03T01:47:04;99165.00;;;13.91;100.00
34482;BME280;20720;48.886;9.388;2023-05-03T01:49:29;99171.16;;;13.57;100.00
34482;BME280;20720;48.886;9.388;2023-05-03T01:51:55;99163.47;;;13.62;100.00
34482;BME280;20720;48.886;9.388;2023-05-03T01:54:20;99166.84;;;13.43;100.00
34482;BME280;20720;48.886;9.388;2023-05-03T01:56:46;99162.22;;;13.11;100.00
34482;BME280;20720;48.886;9.388;2023-05-03T01:59:11;99162.00;;;13.47;100.00
34482;BME280;20720;48.886;9.388;2023-05-03T02:01:36;99162.75;;;13.34;100.00
34482;BME280;20720;48.886;9.388;2023-05-03T02:04:02;99164.84;;;13.45;100.00
34482;BME280;20720;48.886;9.388;2023-05-03T02:06:27;99163.66;;;13.54;100.00
34482;BME280;20720;48.886;9.388;2023-05-03T02:08:52;99168.72;;;13.49;100.00
34482;BME280;20720;48.886;9.388;2023-05-03T02:11:18;99160.75;;;13.43;100.00
34482;BME280;20720;48.886;9.388;2023-05-03T02:13:47;99174.09;;;13.28;100.00
34482;BME280;20720;48.886;9.388;2023-05-03T02:16:13;99164.31;;;13.29;100.00
34482;BME280;20720;48.886;9.388;2023-05-03T02:18:38;99160.78;;;13.08;100.00
34482;BME280;20720;48.886;9.388;2023-05-03T02:21:03;99168.91;;;13.13;100.00
34482;BME280;20720;48.886;9.388;2023-05-03T02:23:29;99166.84;;;12.81;100.00
34482;BME280;20720;48.886;9.388;2023-05-03T02:25:54;99168.72;;;12.60;100.00
34482;BME280;20720;48.886;9.388;2023-05-03T02:28:19;99172.03;;;12.96;100.00
34482;BME280;20720;48.886;9.388;2023-05-03T02:30:45;99168.06;;;12.79;100.00
34482;BME280;20720;48.886;9.388;2023-05-03T02:33:10;99169.66;;;12.73;100.00
34482;BME280;20720;48.886;9.388;2023-05-03T02:35:35;99173.03;;;12.95;100.00
34482;BME280;20720;48.886;9.388;2023-05-03T02:38:00;99173.56;;;12.84;100.00
34482;BME280;20720;48.886;9.388;2023-05-03T02:40:26;99173.28;;;12.45;100.00
34482;BME280;20720;48.886;9.388;2023-05-03T02:42:51;99175.16;;;12.51;100.00
34482;BME280;20720;48.886;9.388;2023-05-03T02:45:16;99167.63;;;12.26;100.00
34482;BME280;20720;48.886;9.388;2023-05-03T02:47:42;99161.13;;;12.22;100.00
34482;BME280;20720;48.886;9.388;2023-05-03T02:50:07;99160.34;;;12.28;100.00
34482;BME280;20720;48.886;9.388;2023-05-03T02:52:33;99162.00;;;12.29;100.00
34482;BME280;20720;48.886;9.388;2023-05-03T02:54:58;99161.88;;;12.16;100.00
34482;BME280;20720;48.886;9.388;2023-05-03T02:57:23;99163.34;;;11.83;100.00
34482;BME280;20720;48.886;9.388;2023-05-03T02:59:49;99159.41;;;11.94;100.00
34482;BME280;20720;48.886;9.388;2023-05-03T03:02:14;99163.56;;;12.03;100.00
34482;BME280;20720;48.886;9.388;2023-05-03T03:04:40;99161.22;;;11.93;100.00
34482;BME280;20720;48.886;9.388;2023-05-03T03:07:05;99167.63;;;11.84;100.00
34482;BME280;20720;48.886;9.388;2023-05-03T03:09:30;99155.56;;;11.61;100.00
34482;BME280;20720;48.886;9.388;2023-05-03T03:11:56;99173.19;;;11.75;100.00
34482;BME280;20720;48.886;9.388;2023-05-03T03:14:21;99158.94;;;11.69;100.00
34482;BME280;20720;48.886;9.388;2023-05-03T03:16:50;99163.38;;;11.69;100.00
34482;BME280;20720;48.886;9.388;2023-05-03T03:19:15;99162.66;;;11.46;100.00
34482;BME280;20720;48.886;9.388;2023-05-03T03:21:40;99159.78;;;11.11;100.00
34482;BME280;20720;48.886;9.388;2023-05-03T03:24:06;99157.91;;;11.20;100.00
34482;BME280;20720;48.886;9.388;2023-05-03T03:26:31;99151.19;;;11.03;100.00
34482;BME280;20720;48.886;9.388;2023-05-03T03:28:56;99162.13;;;11.35;100.00
34482;BME280;20720;48.886;9.388;2023-05-03T03:31:22;99161.25;;;11.28;100.00
34482;BME280;20720;48.886;9.388;2023-05-03T03:33:49;99164.22;;;11.40;100.00
34482;BME280;20720;48.886;9.388;2023-05-03T03:36:15;99162.59;;;11.24;100.00
34482;BME280;20720;48.886;9.388;2023-05-03T03:38:40;99169.75;;;11.30;100.00
34482;BME280;20720;48.886;9.388;2023-05-03T03:41:06;99175.13;;;11.08;100.00
34482;BME280;20720;48.886;9.388;2023-05-03T03:43:32;99173.25;;;11.16;100.00
34482;BME280;20720;48.886;9.388;2023-05-03T03:45:57;99175.22;;;11.14;100.00
34482;BME280;20720;48.886;9.388;2023-05-03T03:48:22;99174.41;;;11.14;100.00
34482;BME280;20720;48.886;9.388;2023-05-03T03:50:48;99174.31;;;10.93;100.00
34482;BME280;20720;48.886;9.388;2023-05-03T03:53:13;99177.63;;;10.58;100.00
34482;BME280;20720;48.886;9.388;2023-05-03T03:55:39;99189.25;;;10.92;100.00
34482;BME280;20720;48.886;9.388;2023-05-03T03:58:04;99196.88;;;11.02;100.00
34482;BME280;20720;48.886;9.388;2023-05-03T04:00:30;99190.78;;;10.72;100.00
34482;BME280;20720;48.886;9.388;2023-05-03T04:02:55;99186.78;;;10.76;100.00
34482;BME280;20720;48.886;9.388;2023-05-03T04:05:20;99188.91;;;10.95;100.00
34482;BME280;20720;48.886;9.388;2023-05-03T04:07:46;99192.81;;;10.99;100.00
34482;BME280;20720;48.886;9.388;2023-05-03T04:10:11;99190.44;;;11.04;100.00
34482;BME280;20720;48.886;9.388;2023-05-03T04:12:36;99192.00;;;10.99;100.00
34482;BME280;20720;48.886;9.388;2023-05-03T04:15:02;99194.06;;;11.03;100.00
34482;BME280;20720;48.886;9.388;2023-05-03T04:17:28;99189.09;;;10.57;100.00
34482;BME280;20720;48.886;9.388;2023-05-03T04:19:53;99200.91;;;10.75;100.00
34482;BME280;20720;48.886;9.388;2023-05-03T04:22:19;99197.13;;;10.78;100.00
34482;BME280;20720;48.886;9.388;2023-05-03T04:24:44;99200.78;;;10.91;100.00
34482;BME280;20720;48.886;9.388;2023-05-03T04:27:10;99206.22;;;10.90;100.00
34482;BME280;20720;48.886;9.388;2023-05-03T04:29:35;99212.94;;;11.07;100.00
34482;BME280;20720;48.886;9.388;2023-05-03T04:32:01;99203.84;;;10.80;100.00
34482;BME280;20720;48.886;9.388;2023-05-03T04:34:28;99210.66;;;11.04;100.00
34482;BME280;20720;48.886;9.388;2023-05-03T04:36:54;99214.31;;;11.32;100.00
34482;BME280;20720;48.886;9.388;2023-05-03T04:39:19;99219.03;;;11.22;100.00
34482;BME280;20720;48.886;9.388;2023-05-03T04:41:46;99217.28;;;11.44;100.00
34482;BME280;20720;48.886;9.388;2023-05-03T04:44:11;99223.28;;;11.23;100.00
34482;BME280;20720;48.886;9.388;2023-05-03T04:46:38;99222.28;;;11.53;100.00
34482;BME280;20720;48.886;9.388;2023-05-03T04:49:04;99227.53;;;11.53;100.00
34482;BME280;20720;48.886;9.388;2023-05-03T04:51:29;99229.00;;;11.70;100.00
34482;BME280;20720;48.886;9.388;2023-05-03T04:53:57;99230.03;;;11.69;100.00
34482;BME280;20720;48.886;9.388;2023-05-03T04:56:22;99233.28;;;11.42;100.00
34482;BME280;20720;48.886;9.388;2023-05-03T04:58:51;99231.56;;;11.20;100.00
34482;BME280;20720;48.886;9.388;2023-05-03T05:01:17;99230.81;;;11.84;100.00
34482;BME280;20720;48.886;9.388;2023-05-03T05:03:42;99230.78;;;11.99;100.00
34482;BME280;20720;48.886;9.388;2023-05-03T05:06:07;99226.84;;;12.30;100.00
34482;BME280;20720;48.886;9.388;2023-05-03T05:08:35;99227.78;;;12.44;100.00
34482;BME280;20720;48.886;9.388;2023-05-03T05:11:01;99224.97;;;12.67;100.00
34482;BME280;20720;48.886;9.388;2023-05-03T05:13:28;99227.09;;;12.57;100.00
34482;BME280;20720;48.886;9.388;2023-05-03T05:15:54;99228.63;;;12.93;100.00
34482;BME280;20720;48.886;9.388;2023-05-03T05:18:19;99226.38;;;13.18;100.00
34482;BME280;20720;48.886;9.388;2023-05-03T05:20:45;99224.66;;;13.38;100.00
34482;BME280;20720;48.886;9.388;2023-05-03T05:23:10;99230.75;;;13.32;100.00
34482;BME280;20720;48.886;9.388;2023-05-03T05:25:36;99232.66;;;13.45;100.00
34482;BME280;20720;48.886;9.388;2023-05-03T05:28:01;99234.97;;;13.27;100.00
34482;BME280;20720;48.886;9.388;2023-05-03T05:30:26;99232.97;;;13.76;100.00
34482;BME280;20720;48.886;9.388;2023-05-03T05:32:52;99234.25;;;13.86;100.00
34482;BME280;20720;48.886;9.388;2023-05-03T05:35:17;99245.72;;;14.06;100.00
34482;BME280;20720;48.886;9.388;2023-05-03T05:37:43;99242.16;;;14.40;100.00
34482;BME280;20720;48.886;9.388;2023-05-03T05:40:09;99236.28;;;14.45;100.00
34482;BME280;20720;48.886;9.388;2023-05-03T05:42:34;99231.41;;;14.55;100.00
34482;BME280;20720;48.886;9.388;2023-05-03T05:44:59;99234.44;;;14.52;100.00
34482;BME280;20720;48.886;9.388;2023-05-03T05:47:25;99245.06;;;14.78;100.00
34482;BME280;20720;48.886;9.388;2023-05-03T05:49:51;99235.50;;;14.90;100.00
34482;BME280;20720;48.886;9.388;2023-05-03T05:52:16;99232.41;;;13.80;100.00
34482;BME280;20720;48.886;9.388;2023-05-03T05:54:44;99243.28;;;12.54;100.00
34482;BME280;20720;48.886;9.388;2023-05-03T05:57:10;99237.09;;;12.89;100.00
34482;BME280;20720;48.886;9.388;2023-05-03T05:59:36;99233.66;;;13.84;100.00
34482;BME280;20720;48.886;9.388;2023-05-03T06:02:01;99234.09;;;13.47;100.00
34482;BME280;20720;48.886;9.388;2023-05-03T06:04:27;99230.91;;;13.65;100.00
34482;BME280;20720;48.886;9.388;2023-05-03T06:06:52;99239.13;;;14.50;100.00
34482;BME280;20720;48.886;9.388;2023-05-03T06:09:18;99228.81;;;15.77;100.00
34482;BME280;20720;48.886;9.388;2023-05-03T06:11:43;99243.50;;;15.73;99.22
34482;BME280;20720;48.886;9.388;2023-05-03T06:14:09;99232.25;;;16.29;94.64
34482;BME280;20720;48.886;9.388;2023-05-03T06:16:35;99242.03;;;16.90;89.57
34482;BME280;20720;48.886;9.388;2023-05-03T06:19:01;99238.56;;;16.90;87.89
34482;BME280;20720;48.886;9.388;2023-05-03T06:21:27;99233.66;;;16.31;91.62
34482;BME280;20720;48.886;9.388;2023-05-03T06:23:54;99233.28;;;15.83;95.08
34482;BME280;20720;48.886;9.388;2023-05-03T06:26:19;99244.31;;;16.18;90.86
34482;BME280;20720;48.886;9.388;2023-05-03T06:28:44;99241.25;;;15.77;99.02
34482;BME280;20720;48.886;9.388;2023-05-03T06:31:11;99241.75;;;17.84;85.53
34482;BME280;20720;48.886;9.388;2023-05-03T06:33:36;99240.38;;;16.34;92.12
34482;BME280;20720;48.886;9.388;2023-05-03T06:36:02;99247.06;;;17.41;85.49
34482;BME280;20720;48.886;9.388;2023-05-03T06:38:28;99247.41;;;17.51;83.79
34482;BME280;20720;48.886;9.388;2023-05-03T06:40:53;99249.03;;;16.85;91.47
34482;BME280;20720;48.886;9.388;2023-05-03T06:43:18;99241.34;;;17.44;86.79
34482;BME280;20720;48.886;9.388;2023-05-03T06:45:45;99241.00;;;18.25;81.17
34482;BME280;20720;48.886;9.388;2023-05-03T06:48:10;99237.09;;;17.61;84.07
34482;BME280;20720;48.886;9.388;2023-05-03T06:50:35;99232.81;;;18.38;82.19
34482;BME280;20720;48.886;9.388;2023-05-03T06:53:01;99240.22;;;17.09;87.51
34482;BME280;20720;48.886;9.388;2023-05-03T06:55:26;99232.28;;;17.70;85.08
34482;BME280;20720;48.886;9.388;2023-05-03T06:57:52;99235.59;;;18.02;82.17
34482;BME280;20720;48.886;9.388;2023-05-03T07:00:18;99236.44;;;18.14;81.12
34482;BME280;20720;48.886;9.388;2023-05-03T07:02:45;99236.56;;;19.59;77.59
34482;BME280;20720;48.886;9.388;2023-05-03T07:05:10;99239.06;;;17.05;84.08
34482;BME280;20720;48.886;9.388;2023-05-03T07:07:35;99232.25;;;16.60;88.39
34482;BME280;20720;48.886;9.388;2023-05-03T07:10:01;99231.16;;;18.55;82.92
34482;BME280;20720;48.886;9.388;2023-05-03T07:12:26;99220.66;;;18.30;83.06
34482;BME280;20720;48.886;9.388;2023-05-03T07:14:55;99217.56;;;20.35;73.37
34482;BME280;20720;48.886;9.388;2023-05-03T07:17:20;99220.13;;;19.27;75.95
34482;BME280;20720;48.886;9.388;2023-05-03T07:19:48;99223.00;;;17.18;86.77
34482;BME280;20720;48.886;9.388;2023-05-03T07:22:13;99226.13;;;18.35;79.83
34482;BME280;20720;48.886;9.388;2023-05-03T07:24:39;99216.00;;;17.96;82.12
34482;BME280;20720;48.886;9.388;2023-05-03T07:27:05;99207.66;;;18.11;83.39
34482;BME280;20720;48.886;9.388;2023-05-03T07:29:30;99210.19;;;18.88;79.80
34482;BME280;20720;48.886;9.388;2023-05-03T07:31:56;99207.34;;;20.60;73.72
34482;BME280;20720;48.886;9.388;2023-05-03T07:34:21;99207.63;;;21.68;67.27
34482;BME280;20720;48.886;9.388;2023-05-03T07:36:46;99207.13;;;20.05;73.02
34482;BME280;20720;48.886;9.388;2023-05-03T07:39:11;99209.63;;;19.84;71.70
34482;BME280;20720;48.886;9.388;2023-05-03T07:41:37;99206.94;;;19.32;75.20
34482;BME280;20720;48.886;9.388;2023-05-03T07:44:03;99201.25;;;20.48;69.83
34482;BME280;20720;48.886;9.388;2023-05-03T07:46:28;99203.84;;;20.76;69.71
34482;BME280;20720;48.886;9.388;2023-05-03T07:48:59;99206.19;;;21.22;67.64
34482;BME280;20720;48.886;9.388;2023-05-03T07:51:24;99206.19;;;19.72;71.72
34482;BME280;20720;48.886;9.388;2023-05-03T07:53:50;99203.69;;;20.49;69.06
34482;BME280;20720;48.886;9.388;2023-05-03T07:56:16;99208.41;;;18.70;79.91
34482;BME280;20720;48.886;9.388;2023-05-03T07:58:41;99207.97;;;17.30;87.72
34482;BME280;20720;48.886;9.388;2023-05-03T08:01:06;99205.16;;;19.61;76.21
34482;BME280;20720;48.886;9.388;2023-05-03T08:03:32;99197.91;;;21.02;71.54
34482;BME280;20720;48.886;9.388;2023-05-03T08:05:57;99197.25;;;19.78;72.98
34482;BME280;20720;48.886;9.388;2023-05-03T08:08:22;99197.22;;;20.79;70.41
34482;BME280;20720;48.886;9.388;2023-05-03T08:10:50;99195.56;;;19.14;72.41
34482;BME280;20720;48.886;9.388;2023-05-03T08:13:15;99199.44;;;18.42;82.37
34482;BME280;20720;48.886;9.388;2023-05-03T08:15:41;99192.78;;;19.95;73.80
34482;BME280;20720;48.886;9.388;2023-05-03T08:18:06;99185.50;;;22.21;66.15
34482;BME280;20720;48.886;9.388;2023-05-03T08:20:31;99198.63;;;22.22;64.45
34482;BME280;20720;48.886;9.388;2023-05-03T08:23:00;99191.97;;;20.67;69.49
34482;BME280;20720;48.886;9.388;2023-05-03T08:25:26;99199.03;;;18.91;76.62
34482;BME280;20720;48.886;9.388;2023-05-03T08:27:52;99205.50;;;17.53;86.34
34482;BME280;20720;48.886;9.388;2023-05-03T08:30:19;99197.28;;;20.06;77.75
34482;BME280;20720;48.886;9.388;2023-05-03T08:32:45;99196.75;;;20.82;72.39
34482;BME280;20720;48.886;9.388;2023-05-03T08:35:11;99191.84;;;20.29;73.88
34482;BME280;20720;48.886;9.388;2023-05-03T08:37:38;99205.91;;;21.40;69.67
34482;BME280;20720;48.886;9.388;2023-05-03T08:40:05;99198.13;;;21.56;68.14
34482;BME280;20720;48.886;9.388;2023-05-03T08:42:31;99198.81;;;21.29;68.21
34482;BME280;20720;48.886;9.388;2023-05-03T08:44:57;99201.59;;;21.18;71.89
34482;BME280;20720;48.886;9.388;2023-05-03T08:47:23;99207.03;;;20.73;72.06
34482;BME280;20720;48.886;9.388;2023-05-03T08:49:51;99195.88;;;23.02;63.49
34482;BME280;20720;48.886;9.388;2023-05-03T08:52:17;99195.53;;;23.30;62.07
34482;BME280;20720;48.886;9.388;2023-05-03T08:54:44;99202.69;;;20.39;72.21
34482;BME280;20720;48.886;9.388;2023-05-03T08:57:10;99203.84;;;20.15;74.32
34482;BME280;20720;48.886;9.388;2023-05-03T08:59:50;99199.50;;;20.87;70.68
34482;BME280;20720;48.886;9.388;2023-05-03T09:02:17;99200.84;;;21.61;65.81
34482;BME280;20720;48.886;9.388;2023-05-03T09:04:43;99201.66;;;21.61;66.62
34482;BME280;20720;48.886;9.388;2023-05-03T09:07:09;99204.69;;;22.39;62.90
34482;BME280;20720;48.886;9.388;2023-05-03T09:09:35;99203.69;;;21.16;67.52
34482;BME280;20720;48.886;9.388;2023-05-03T09:12:01;99206.53;;;21.26;68.35
34482;BME280;20720;48.886;9.388;2023-05-03T09:14:27;99209.56;;;22.16;65.22
34482;BME280;20720;48.886;9.388;2023-05-03T09:16:52;99204.09;;;21.63;66.55
34482;BME280;20720;48.886;9.388;2023-05-03T09:19:17;99205.63;;;21.20;68.47
34482;BME280;20720;48.886;9.388;2023-05-03T09:21:44;99208.28;;;23.55;64.15
34482;BME280;20720;48.886;9.388;2023-05-03T09:24:12;99204.53;;;20.83;67.28
34482;BME280;20720;48.886;9.388;2023-05-03T09:26:38;99204.53;;;20.10;74.18
34482;BME280;20720;48.886;9.388;2023-05-03T09:29:05;99202.88;;;19.93;74.20
34482;BME280;20720;48.886;9.388;2023-05-03T09:31:32;99201.47;;;20.02;73.42
34482;BME280;20720;48.886;9.388;2023-05-03T09:33:58;99201.25;;;21.91;65.89
34482;BME280;20720;48.886;9.388;2023-05-03T09:36:24;99193.84;;;21.60;68.50
34482;BME280;20720;48.886;9.388;2023-05-03T09:38:50;99196.16;;;20.46;69.49
34482;BME280;20720;48.886;9.388;2023-05-03T09:41:29;99200.66;;;19.61;75.90
34482;BME280;20720;48.886;9.388;2023-05-03T09:43:55;99195.63;;;22.14;68.60
34482;BME280;20720;48.886;9.388;2023-05-03T09:46:21;99190.63;;;21.58;67.90
34482;BME280;20720;48.886;9.388;2023-05-03T09:48:48;99189.22;;;20.17;74.46
34482;BME280;20720;48.886;9.388;2023-05-03T09:51:15;99201.00;;;19.53;71.64
34482;BME280;20720;48.886;9.388;2023-05-03T09:53:40;99196.41;;;19.89;73.35
34482;BME280;20720;48.886;9.388;2023-05-03T09:56:07;99187.13;;;20.19;71.07
34482;BME280;20720;48.886;9.388;2023-05-03T09:58:37;99197.06;;;21.78;67.43
34482;BME280;20720;48.886;9.388;2023-05-03T10:01:03;99192.66;;;21.89;65.00
34482;BME280;20720;48.886;9.388;2023-05-03T10:03:40;99195.44;;;20.34;73.36
34482;BME280;20720;48.886;9.388;2023-05-03T10:06:19;99198.47;;;22.92;64.21
34482;BME280;20720;48.886;9.388;2023-05-03T10:09:23;99187.50;;;22.62;64.38
34482;BME280;20720;48.886;9.388;2023-05-03T10:11:53;99181.38;;;22.08;63.28
34482;BME280;20720;48.886;9.388;2023-05-03T10:14:23;99184.09;;;20.44;68.60
34482;BME280;20720;48.886;9.388;2023-05-03T10:16:50;99180.06;;;21.68;65.76
34482;BME280;20720;48.886;9.388;2023-05-03T10:19:27;99179.13;;;21.35;66.68
34482;BME280;20720;48.886;9.388;2023-05-03T10:22:09;99171.47;;;20.23;73.12
34482;BME280;20720;48.886;9.388;2023-05-03T10:27:24;99170.84;;;26.10;54.30
34482;BME280;20720;48.886;9.388;2023-05-03T10:29:50;99172.09;;;27.71;50.28
34482;BME280;20720;48.886;9.388;2023-05-03T10:35:06;99171.06;;;25.70;53.35
34482;BME280;20720;48.886;9.388;2023-05-03T10:37:32;99170.00;;;23.85;54.50
34482;BME280;20720;48.886;9.388;2023-05-03T10:40:16;99165.78;;;25.45;51.06
34482;BME280;20720;48.886;9.388;2023-05-03T10:42:45;99155.50;;;25.57;53.14
34482;BME280;20720;48.886;9.388;2023-05-03T10:45:22;99167.19;;;27.02;49.11
34482;BME280;20720;48.886;9.388;2023-05-03T10:50:41;99154.69;;;27.82;46.80
34482;BME280;20720;48.886;9.388;2023-05-03T10:53:07;99154.81;;;26.34;47.32
34482;BME280;20720;48.886;9.388;2023-05-03T10:55:34;99156.06;;;25.49;51.27
34482;BME280;20720;48.886;9.388;2023-05-03T10:58:00;99152.94;;;24.66;52.02
34482;BME280;20720;48.886;9.388;2023-05-03T11:00:38;99151.59;;;24.44;52.32
34482;BME280;20720;48.886;9.388;2023-05-03T11:03:41;99152.13;;;24.31;51.17
34482;BME280;20720;48.886;9.388;2023-05-03T11:06:07;99144.84;;;28.28;45.17
34482;BME280;20720;48.886;9.388;2023-05-03T11:08:32;99145.50;;;28.20;43.38
34482;BME280;20720;48.886;9.388;2023-05-03T11:11:02;99155.97;;;25.74;47.22
34482;BME280;20720;48.886;9.388;2023-05-03T11:13:33;99144.06;;;24.91;48.78
34482;BME280;20720;48.886;9.388;2023-05-03T11:15:58;99140.81;;;28.44;42.17
34482;BME280;20720;48.886;9.388;2023-05-03T11:18:25;99123.69;;;28.81;41.29
34482;BME280;20720;48.886;9.388;2023-05-03T11:20:51;99120.69;;;28.83;42.06
34482;BME280;20720;48.886;9.388;2023-05-03T11:23:17;99130.66;;;23.39;50.67
34482;BME280;20720;48.886;9.388;2023-05-03T11:25:43;99120.31;;;26.36;46.87
34482;BME280;20720;48.886;9.388;2023-05-03T11:28:08;99119.47;;;25.38;46.86
34482;BME280;20720;48.886;9.388;2023-05-03T11:30:34;99114.16;;;27.40;43.09
34482;BME280;20720;48.886;9.388;2023-05-03T11:33:00;99109.22;;;28.58;42.30
34482;BME280;20720;48.886;9.388;2023-05-03T11:35:30;99103.78;;;29.72;40.05
34482;BME280;20720;48.886;9.388;2023-05-03T11:37:57;99109.22;;;28.08;41.18
34482;BME280;20720;48.886;9.388;2023-05-03T11:40:22;99108.88;;;26.15;45.25
34482;BME280;20720;48.886;9.388;2023-05-03T11:42:51;99102.28;;;25.29;43.97
34482;BME280;20720;48.886;9.388;2023-05-03T11:45:19;99110.72;;;27.34;43.72
34482;BME280;20720;48.886;9.388;2023-05-03T11:47:45;99104.94;;;26.36;41.97
34482;BME280;20720;48.886;9.388;2023-05-03T11:50:11;99107.28;;;25.60;43.22
34482;BME280;20720;48.886;9.388;2023-05-03T11:52:37;99106.03;;;26.64;42.14
34482;BME280;20720;48.886;9.388;2023-05-03T11:55:03;99102.94;;;28.44;40.79
34482;BME280;20720;48.886;9.388;2023-05-03T11:57:31;99097.31;;;26.04;43.82
34482;BME280;20720;48.886;9.388;2023-05-03T12:00:09;99088.53;;;29.08;39.86
34482;BME280;20720;48.886;9.388;2023-05-03T12:02:35;99091.38;;;29.17;40.07
34482;BME280;20720;48.886;9.388;2023-05-03T12:05:00;99089.13;;;29.73;36.94
34482;BME280;20720;48.886;9.388;2023-05-03T12:07:26;99085.09;;;30.06;39.05
34482;BME280;20720;48.886;9.388;2023-05-03T12:09:51;99082.00;;;27.62;39.51
34482;BME280;20720;48.886;9.388;2023-05-03T12:12:20;99078.50;;;28.49;37.45
34482;BME280;20720;48.886;9.388;2023-05-03T12:14:59;99066.16;;;28.11;39.88
34482;BME280;20720;48.886;9.388;2023-05-03T12:17:35;99064.19;;;24.96;45.94
34482;BME280;20720;48.886;9.388;2023-05-03T12:20:20;99067.06;;;25.79;44.00
34482;BME280;20720;48.886;9.388;2023-05-03T12:22:50;99069.94;;;24.35;46.53
34482;BME280;20720;48.886;9.388;2023-05-03T12:25:16;99058.94;;;25.45;44.07
34482;BME280;20720;48.886;9.388;2023-05-03T12:27:41;99069.53;;;22.52;47.84
34482;BME280;20720;48.886;9.388;2023-05-03T12:30:07;99064.16;;;23.46;47.53
34482;BME280;20720;48.886;9.388;2023-05-03T12:32:36;99069.69;;;24.11;47.15
34482;BME280;20720;48.886;9.388;2023-05-03T12:35:06;99068.19;;;21.86;50.62
34482;BME280;20720;48.886;9.388;2023-05-03T12:37:33;99068.63;;;26.24;43.07
34482;BME280;20720;48.886;9.388;2023-05-03T12:39:58;99064.38;;;29.12;39.33
34482;BME280;20720;48.886;9.388;2023-05-03T12:42:23;99065.38;;;31.28;36.33
34482;BME280;20720;48.886;9.388;2023-05-03T12:44:50;99060.97;;;29.06;38.14
34482;BME280;20720;48.886;9.388;2023-05-03T12:47:15;99065.75;;;26.77;41.45
34482;BME280;20720;48.886;9.388;2023-05-03T12:49:40;99049.84;;;27.23;38.66
34482;BME280;20720;48.886;9.388;2023-05-03T12:52:06;99041.13;;;28.84;37.89
34482;BME280;20720;48.886;9.388;2023-05-03T12:54:33;99043.75;;;23.40;45.13
34482;BME280;20720;48.886;9.388;2023-05-03T12:56:58;99047.78;;;22.43;49.01
34482;BME280;20720;48.886;9.388;2023-05-03T12:59:28;99041.66;;;22.95;48.58
34482;BME280;20720;48.886;9.388;2023-05-03T13:01:53;99039.31;;;22.57;50.27
34482;BME280;20720;48.886;9.388;2023-05-03T13:04:19;99043.09;;;23.17;47.53
34482;BME280;20720;48.886;9.388;2023-05-03T13:06:44;99025.63;;;24.22;46.44